createdAt,value
2018-05-03T00:00:56.863Z,3.00
2018-05-03T00:01:56.797Z,2.90
2018-05-03T00:02:56.713Z,3.40
2018-05-03T00:03:56.628Z,3.00
2018-05-03T00:04:56.551Z,3.20
2018-05-03T00:05:56.473Z,3.30
2018-05-03T00:06:56.399Z,2.80
2018-05-03T00:07:56.320Z,3.60
2018-05-03T00:08:56.243Z,3.90
2018-05-03T00:09:56.165Z,4.60
2018-05-03T00:10:56.089Z,4.80
2018-05-03T00:11:56.011Z,3.40
2018-05-03T00:12:55.934Z,3.20
2018-05-03T00:13:55.856Z,3.20
2018-05-03T00:14:55.781Z,2.80
2018-05-03T00:15:55.703Z,2.80
2018-05-03T00:16:55.627Z,2.90
2018-05-03T00:17:55.550Z,2.80
2018-05-03T00:18:55.475Z,3.30
2018-05-03T00:19:55.396Z,3.60
2018-05-03T00:20:55.318Z,3.00
2018-05-03T00:21:55.240Z,3.70
2018-05-03T00:22:55.164Z,3.40
2018-05-03T00:23:55.086Z,3.00
2018-05-03T00:24:55.011Z,4.10
2018-05-03T00:25:54.937Z,4.30
2018-05-03T00:26:54.855Z,2.80
2018-05-03T00:27:54.779Z,4.80
2018-05-03T00:28:54.701Z,3.20
2018-05-03T00:29:54.624Z,3.70
2018-05-03T00:30:54.546Z,3.40
2018-05-03T00:31:54.471Z,3.20
2018-05-03T00:32:54.393Z,3.50
2018-05-03T00:33:54.315Z,3.60
2018-05-03T00:34:54.237Z,3.30
2018-05-03T00:35:54.163Z,3.40
2018-05-03T00:36:54.084Z,3.60
2018-05-03T00:37:54.007Z,4.30
2018-05-03T00:38:53.935Z,3.20
2018-05-03T00:39:53.852Z,5.40
2018-05-03T00:40:53.776Z,3.00
2018-05-03T00:41:53.700Z,4.00
2018-05-03T00:42:53.622Z,3.50
2018-05-03T00:43:53.546Z,3.20
2018-05-03T00:44:53.469Z,4.30
2018-05-03T00:45:53.390Z,4.20
2018-05-03T00:46:53.314Z,3.20
2018-05-03T00:47:53.237Z,3.40
2018-05-03T00:48:53.160Z,3.40
2018-05-03T00:49:53.082Z,3.00
2018-05-03T00:50:53.006Z,3.40
2018-05-03T00:51:52.931Z,3.30
2018-05-03T00:52:52.852Z,3.60
2018-05-03T00:53:52.778Z,3.20
2018-05-03T00:54:52.699Z,4.20
2018-05-03T00:55:52.623Z,3.50
2018-05-03T00:56:52.547Z,3.30
2018-05-03T00:57:52.467Z,3.10
2018-05-03T00:58:52.391Z,3.50
2018-05-03T00:59:52.315Z,3.20
2018-05-03T01:00:52.240Z,3.30
2018-05-03T01:01:52.162Z,3.90
2018-05-03T01:02:52.085Z,2.90
2018-05-03T01:03:52.009Z,3.60
2018-05-03T01:04:51.933Z,4.10
2018-05-03T01:05:51.858Z,5.50
2018-05-03T01:06:51.779Z,3.20
2018-05-03T01:07:51.704Z,3.30
2018-05-03T01:08:51.626Z,4.00
2018-05-03T01:09:51.549Z,6.10
2018-05-03T01:10:51.472Z,3.30
2018-05-03T01:11:51.396Z,3.90
2018-05-03T01:12:51.322Z,4.70
2018-05-03T01:13:51.243Z,3.30
2018-05-03T01:14:51.166Z,4.00
2018-05-03T01:15:51.089Z,3.90
2018-05-03T01:16:51.012Z,4.20
2018-05-03T01:17:50.936Z,3.50
2018-05-03T01:18:50.860Z,3.30
2018-05-03T01:19:50.785Z,4.40
2018-05-03T01:20:50.708Z,3.00
2018-05-03T01:21:50.631Z,3.40
2018-05-03T01:22:50.554Z,3.60
2018-05-03T01:23:50.478Z,3.50
2018-05-03T01:24:50.401Z,3.50
2018-05-03T01:25:50.324Z,4.20
2018-05-03T01:26:50.249Z,3.30
2018-05-03T01:27:50.174Z,3.40
2018-05-03T01:28:50.098Z,3.20
2018-05-03T01:29:50.021Z,3.20
2018-05-03T01:30:50.245Z,3.90
2018-05-03T01:31:49.869Z,3.80
2018-05-03T01:32:49.793Z,3.70
2018-05-03T01:33:49.714Z,4.10
2018-05-03T01:34:49.639Z,3.10
2018-05-03T01:35:49.563Z,3.40
2018-05-03T01:36:49.486Z,4.40
2018-05-03T01:37:49.410Z,4.10
2018-05-03T01:38:49.334Z,4.40
2018-05-03T01:39:49.262Z,3.50
2018-05-03T01:40:49.183Z,3.60
2018-05-03T01:41:49.105Z,3.40
2018-05-03T01:42:49.031Z,3.90
2018-05-03T01:43:48.954Z,3.80
2018-05-03T01:44:48.878Z,3.50
2018-05-03T01:45:48.799Z,3.60
2018-05-03T01:46:48.724Z,4.30
2018-05-03T01:47:48.648Z,3.80
2018-05-03T01:48:48.573Z,3.00
2018-05-03T01:49:48.499Z,3.40
2018-05-03T01:50:48.420Z,4.40
2018-05-03T01:51:48.344Z,3.00
2018-05-03T01:52:48.269Z,3.40
2018-05-03T01:53:48.192Z,4.20
2018-05-03T01:54:48.115Z,3.70
2018-05-03T01:55:48.039Z,3.60
2018-05-03T01:56:47.964Z,3.10
2018-05-03T01:57:47.887Z,3.10
2018-05-03T01:58:47.811Z,3.50
2018-05-03T01:59:47.735Z,3.00
2018-05-03T02:00:47.657Z,5.70
2018-05-03T02:01:47.581Z,4.10
2018-05-03T02:02:47.505Z,5.60
2018-05-03T02:03:47.438Z,6.50
2018-05-03T02:04:47.352Z,4.80
2018-05-03T02:05:47.275Z,4.00
2018-05-03T02:06:47.200Z,3.60
2018-05-03T02:07:47.124Z,5.50
2018-05-03T02:08:47.048Z,3.20
2018-05-03T02:09:46.971Z,3.40
2018-05-03T02:10:46.894Z,3.80
2018-05-03T02:11:46.820Z,4.20
2018-05-03T02:12:46.742Z,3.60
2018-05-03T02:13:46.667Z,3.90
2018-05-03T02:14:46.591Z,3.70
2018-05-03T02:15:46.514Z,3.70
2018-05-03T02:16:46.438Z,3.30
2018-05-03T02:17:46.362Z,3.40
2018-05-03T02:18:46.286Z,3.40
2018-05-03T02:19:46.211Z,3.40
2018-05-03T02:20:46.135Z,3.40
2018-05-03T02:21:46.058Z,3.90
2018-05-03T02:22:45.982Z,4.30
2018-05-03T02:23:45.905Z,3.40
2018-05-03T02:24:45.831Z,4.70
2018-05-03T02:25:45.754Z,4.10
2018-05-03T02:26:45.680Z,3.30
2018-05-03T02:27:45.604Z,3.30
2018-05-03T02:28:45.524Z,4.40
2018-05-03T02:29:45.448Z,4.10
2018-05-03T02:30:45.373Z,3.90
2018-05-03T02:31:45.305Z,3.80
2018-05-03T02:32:45.222Z,4.40
2018-05-03T02:33:45.143Z,3.40
2018-05-03T02:34:45.068Z,3.60
2018-05-03T02:35:44.992Z,4.50
2018-05-03T02:36:44.923Z,3.30
2018-05-03T02:37:44.843Z,4.40
2018-05-03T02:38:44.765Z,3.70
2018-05-03T02:39:44.687Z,3.50
2018-05-03T02:40:44.612Z,3.30
2018-05-03T02:41:44.535Z,4.40
2018-05-03T02:42:44.459Z,4.20
2018-05-03T02:43:44.386Z,3.40
2018-05-03T02:44:44.311Z,3.10
2018-05-03T02:45:44.232Z,4.10
2018-05-03T02:46:44.155Z,3.90
2018-05-03T02:47:44.078Z,3.70
2018-05-03T02:48:44.004Z,3.20
2018-05-03T02:49:43.926Z,3.20
2018-05-03T02:50:43.850Z,3.20
2018-05-03T02:51:43.774Z,3.40
2018-05-03T02:52:43.698Z,3.10
2018-05-03T02:53:43.632Z,3.10
2018-05-03T02:54:43.545Z,3.20
2018-05-03T02:55:43.470Z,3.40
2018-05-03T02:56:43.394Z,3.30
2018-05-03T02:57:43.317Z,3.50
2018-05-03T02:58:43.241Z,3.30
2018-05-03T02:59:43.167Z,3.80
2018-05-03T03:00:43.089Z,3.80
2018-05-03T03:01:43.012Z,4.20
2018-05-03T03:02:42.935Z,3.90
2018-05-03T03:03:42.861Z,4.80
2018-05-03T03:04:42.801Z,3.80
2018-05-03T03:05:42.707Z,3.60
2018-05-03T03:06:42.633Z,3.80
2018-05-03T03:07:42.556Z,3.20
2018-05-03T03:08:42.481Z,3.50
2018-05-03T03:09:42.458Z,3.10
2018-05-03T03:10:42.327Z,3.30
2018-05-03T03:11:42.250Z,3.30
2018-05-03T03:12:42.174Z,3.30
2018-05-03T03:13:42.097Z,4.80
2018-05-03T03:14:42.021Z,3.30
2018-05-03T03:15:41.945Z,3.30
2018-05-03T03:16:41.871Z,3.80
2018-05-03T03:17:41.791Z,3.40
2018-05-03T03:18:41.716Z,3.50
2018-05-03T03:19:41.640Z,3.90
2018-05-03T03:20:41.565Z,3.30
2018-05-03T03:21:41.487Z,5.00
2018-05-03T03:22:41.412Z,3.10
2018-05-03T03:23:41.335Z,4.40
2018-05-03T03:24:41.258Z,3.20
2018-05-03T03:25:41.182Z,3.50
2018-05-03T03:26:41.104Z,3.60
2018-05-03T03:27:41.028Z,3.40
2018-05-03T03:28:40.953Z,3.30
2018-05-03T03:29:40.875Z,3.60
2018-05-03T03:30:40.799Z,3.30
2018-05-03T03:31:40.725Z,2.90
2018-05-03T03:32:40.648Z,3.70
2018-05-03T03:33:40.574Z,3.40
2018-05-03T03:34:40.495Z,3.40
2018-05-03T03:35:40.418Z,4.00
2018-05-03T03:36:40.342Z,3.30
2018-05-03T03:37:40.265Z,4.30
2018-05-03T03:38:40.189Z,3.00
2018-05-03T03:39:40.115Z,6.00
2018-05-03T03:40:40.036Z,5.00
2018-05-03T03:41:39.958Z,3.90
2018-05-03T03:42:39.883Z,3.20
2018-05-03T03:43:39.806Z,3.80
2018-05-03T03:44:39.730Z,3.60
2018-05-03T03:45:39.656Z,4.40
2018-05-03T03:46:39.578Z,4.40
2018-05-03T03:47:39.501Z,5.20
2018-05-03T03:48:39.424Z,3.70
2018-05-03T03:49:39.347Z,3.50
2018-05-03T03:50:39.272Z,3.50
2018-05-03T03:51:39.200Z,3.60
2018-05-03T03:52:39.120Z,3.10
2018-05-03T03:53:39.043Z,4.60
2018-05-03T03:54:38.967Z,3.20
2018-05-03T03:55:38.899Z,4.10
2018-05-03T03:56:38.814Z,4.00
2018-05-03T03:57:38.737Z,4.00
2018-05-03T03:58:38.661Z,4.00
2018-05-03T03:59:38.584Z,5.40
2018-05-03T04:00:38.508Z,4.60
2018-05-03T04:01:38.432Z,3.30
2018-05-03T04:02:38.356Z,3.30
2018-05-03T04:03:38.279Z,3.20
2018-05-03T04:04:38.204Z,3.70
2018-05-03T04:05:38.127Z,3.70
2018-05-03T04:06:38.049Z,3.50
2018-05-03T04:07:37.974Z,3.40
2018-05-03T04:08:37.898Z,4.10
2018-05-03T04:09:37.821Z,3.40
2018-05-03T04:10:37.747Z,3.60
2018-05-03T04:11:37.669Z,4.50
2018-05-03T04:12:37.592Z,3.20
2018-05-03T04:13:37.515Z,4.00
2018-05-03T04:14:37.440Z,3.20
2018-05-03T04:15:37.362Z,4.70
2018-05-03T04:16:37.287Z,4.60
2018-05-03T04:17:37.209Z,3.40
2018-05-03T04:18:37.136Z,3.10
2018-05-03T04:19:37.059Z,4.40
2018-05-03T04:20:36.981Z,3.20
2018-05-03T04:21:36.902Z,3.20
2018-05-03T04:22:36.827Z,3.50
2018-05-03T04:23:36.750Z,5.30
2018-05-03T04:24:36.674Z,4.10
2018-05-03T04:25:36.597Z,4.50
2018-05-03T04:26:36.521Z,4.10
2018-05-03T04:27:36.446Z,3.50
2018-05-03T04:28:36.369Z,4.00
2018-05-03T04:29:36.292Z,3.00
2018-05-03T04:30:36.215Z,4.00
2018-05-03T04:31:36.140Z,3.50
2018-05-03T04:32:36.064Z,3.60
2018-05-03T04:33:35.986Z,3.80
2018-05-03T04:34:36.006Z,3.60
2018-05-03T04:35:35.835Z,4.20
2018-05-03T04:36:35.761Z,4.70
2018-05-03T04:37:35.682Z,3.50
2018-05-03T04:38:35.604Z,3.60
2018-05-03T04:39:35.528Z,3.50
2018-05-03T04:40:35.451Z,4.30
2018-05-03T04:41:35.375Z,5.20
2018-05-03T04:42:35.297Z,3.40
2018-05-03T04:43:35.221Z,4.60
2018-05-03T04:44:35.145Z,3.40
2018-05-03T04:45:35.069Z,4.10
2018-05-03T04:46:34.991Z,3.40
2018-05-03T04:47:34.916Z,3.50
2018-05-03T04:48:34.845Z,3.50
2018-05-03T04:49:34.763Z,3.30
2018-05-03T04:50:34.686Z,3.00
2018-05-03T04:51:34.609Z,5.10
2018-05-03T04:52:34.534Z,5.40
2018-05-03T04:53:34.463Z,3.50
2018-05-03T04:54:34.382Z,5.80
2018-05-03T04:55:34.314Z,3.20
2018-05-03T04:56:34.228Z,3.10
2018-05-03T04:57:34.152Z,3.60
2018-05-03T04:58:34.076Z,3.30
2018-05-03T04:59:34.000Z,4.40
2018-05-03T05:00:33.925Z,3.70
2018-05-03T05:01:33.847Z,3.40
2018-05-03T05:02:33.775Z,3.30
2018-05-03T05:03:33.695Z,3.50
2018-05-03T05:04:33.621Z,4.10
2018-05-03T05:05:33.544Z,3.20
2018-05-03T05:06:33.468Z,3.80
2018-05-03T05:07:33.391Z,4.30
2018-05-03T05:08:33.316Z,3.90
2018-05-03T05:09:33.239Z,4.70
2018-05-03T05:10:33.247Z,3.50
2018-05-03T05:11:33.088Z,4.30
2018-05-03T05:12:33.013Z,2.90
2018-05-03T05:13:32.935Z,4.00
2018-05-03T05:14:32.861Z,3.40
2018-05-03T05:15:32.784Z,5.60
2018-05-03T05:16:32.708Z,3.30
2018-05-03T05:17:32.633Z,4.20
2018-05-03T05:18:32.557Z,3.50
2018-05-03T05:19:32.482Z,3.40
2018-05-03T05:20:32.405Z,3.60
2018-05-03T05:21:32.329Z,6.60
2018-05-03T05:22:32.254Z,4.30
2018-05-03T05:23:32.180Z,4.70
2018-05-03T05:24:32.103Z,3.90
2018-05-03T05:25:32.026Z,4.00
2018-05-03T05:26:31.951Z,4.30
2018-05-03T05:27:31.877Z,3.70
2018-05-03T05:28:31.800Z,4.80
2018-05-03T05:29:31.723Z,4.60
2018-05-03T05:30:31.680Z,4.40
2018-05-03T05:31:31.572Z,3.50
2018-05-03T05:32:31.498Z,3.80
2018-05-03T05:33:31.426Z,3.70
2018-05-03T05:34:31.349Z,4.10
2018-05-03T05:35:31.270Z,4.90
2018-05-03T05:36:31.195Z,4.30
2018-05-03T05:37:31.118Z,3.90
2018-05-03T05:38:31.122Z,3.80
2018-05-03T05:39:30.968Z,4.20
2018-05-03T05:40:30.892Z,5.20
2018-05-03T05:41:30.817Z,3.90
2018-05-03T05:42:30.740Z,3.90
2018-05-03T05:43:30.665Z,5.10
2018-05-03T05:44:30.591Z,5.80
2018-05-03T05:45:30.515Z,5.40
2018-05-03T05:46:30.439Z,6.40
2018-05-03T05:47:30.365Z,8.30
2018-05-03T05:48:30.288Z,6.50
2018-05-03T05:49:30.212Z,5.80
2018-05-03T05:50:30.137Z,5.20
2018-05-03T05:51:30.065Z,6.10
2018-05-03T05:52:29.988Z,4.80
2018-05-03T05:53:29.911Z,5.90
2018-05-03T05:54:29.835Z,4.40
2018-05-03T05:55:29.761Z,5.50
2018-05-03T05:56:29.686Z,4.40
2018-05-03T05:57:29.609Z,5.70
2018-05-03T05:58:29.535Z,7.80
2018-05-03T05:59:29.459Z,5.00
2018-05-03T06:00:29.384Z,5.40
2018-05-03T06:01:29.308Z,6.50
2018-05-03T06:02:29.235Z,3.80
2018-05-03T06:03:29.160Z,5.20
2018-05-03T06:04:29.083Z,4.10
2018-05-03T06:05:29.008Z,5.20
2018-05-03T06:06:28.933Z,5.10
2018-05-03T06:07:28.858Z,6.10
2018-05-03T06:08:28.782Z,4.60
2018-05-03T06:09:28.706Z,5.50
2018-05-03T06:10:28.738Z,4.00
2018-05-03T06:11:28.558Z,4.90
2018-05-03T06:12:28.483Z,4.60
2018-05-03T06:13:28.407Z,4.40
2018-05-03T06:14:28.332Z,5.00
2018-05-03T06:15:28.258Z,5.50
2018-05-03T06:16:28.184Z,5.40
2018-05-03T06:17:28.113Z,3.90
2018-05-03T06:18:28.033Z,4.50
2018-05-03T06:19:27.958Z,3.80
2018-05-03T06:20:27.883Z,4.10
2018-05-03T06:21:27.807Z,4.80
2018-05-03T06:22:27.735Z,4.00
2018-05-03T06:23:27.659Z,6.30
2018-05-03T06:24:27.585Z,3.70
2018-05-03T06:25:27.510Z,3.50
2018-05-03T06:26:27.434Z,4.80
2018-05-03T06:27:27.361Z,4.10
2018-05-03T06:28:27.285Z,3.70
2018-05-03T06:29:27.213Z,3.60
2018-05-03T06:30:27.138Z,3.70
2018-05-03T06:31:27.063Z,3.60
2018-05-03T06:32:26.989Z,4.00
2018-05-03T06:33:26.913Z,4.10
2018-05-03T06:34:26.837Z,3.90
2018-05-03T06:35:26.767Z,3.80
2018-05-03T06:36:26.690Z,3.40
2018-05-03T06:37:26.614Z,3.70
2018-05-03T06:38:26.542Z,4.10
2018-05-03T06:39:26.468Z,3.40
2018-05-03T06:40:26.393Z,3.80
2018-05-03T06:41:26.317Z,4.00
2018-05-03T06:42:26.241Z,3.20
2018-05-03T06:43:26.169Z,5.10
2018-05-03T06:44:26.094Z,3.90
2018-05-03T06:45:26.131Z,4.70
2018-05-03T06:46:25.943Z,3.40
2018-05-03T06:47:25.869Z,3.90
2018-05-03T06:48:25.796Z,4.40
2018-05-03T06:49:25.721Z,4.90
2018-05-03T06:50:25.646Z,4.00
2018-05-03T06:51:25.586Z,3.50
2018-05-03T06:52:25.500Z,5.10
2018-05-03T06:53:25.423Z,5.90
2018-05-03T06:54:25.352Z,4.30
2018-05-03T06:55:25.275Z,3.80
2018-05-03T06:56:25.201Z,4.80
2018-05-03T06:57:25.125Z,3.70
2018-05-03T06:58:25.052Z,5.50
2018-05-03T06:59:24.978Z,4.00
2018-05-03T07:00:24.903Z,4.50
2018-05-03T07:01:24.829Z,4.30
2018-05-03T07:02:24.755Z,5.40
2018-05-03T07:03:24.681Z,4.90
2018-05-03T07:04:24.644Z,4.30
2018-05-03T07:05:24.531Z,4.60
2018-05-03T07:06:24.458Z,4.60
2018-05-03T07:07:24.384Z,4.70
2018-05-03T07:08:24.316Z,4.40
2018-05-03T07:09:24.236Z,4.50
2018-05-03T07:10:24.161Z,4.10
2018-05-03T07:11:24.088Z,4.40
2018-05-03T07:12:24.018Z,4.10
2018-05-03T07:13:23.940Z,3.70
2018-05-03T07:14:23.865Z,4.10
2018-05-03T07:15:23.792Z,4.30
2018-05-03T07:16:23.748Z,5.00
2018-05-03T07:17:23.643Z,5.50
2018-05-03T07:18:23.568Z,4.60
2018-05-03T07:19:23.504Z,4.10
2018-05-03T07:20:23.582Z,3.80
2018-05-03T07:21:23.557Z,4.70
2018-05-03T07:22:23.274Z,4.40
2018-05-03T07:23:23.200Z,5.80
2018-05-03T07:24:23.127Z,4.40
2018-05-03T07:25:23.051Z,5.00
2018-05-03T07:26:22.977Z,4.80
2018-05-03T07:27:22.904Z,5.00
2018-05-03T07:28:22.831Z,4.20
2018-05-03T07:29:22.779Z,4.50
2018-05-03T07:30:22.684Z,4.20
2018-05-03T07:31:22.609Z,4.70
2018-05-03T07:32:22.536Z,4.80
2018-05-03T07:33:22.462Z,5.90
2018-05-03T07:34:22.388Z,5.80
2018-05-03T07:35:22.314Z,4.70
2018-05-03T07:36:22.241Z,4.90
2018-05-03T07:37:22.166Z,4.20
2018-05-03T07:38:22.093Z,4.30
2018-05-03T07:39:22.020Z,5.00
2018-05-03T07:40:21.947Z,4.50
2018-05-03T07:41:21.878Z,4.60
2018-05-03T07:42:21.799Z,4.70
2018-05-03T07:43:21.725Z,5.80
2018-05-03T07:44:21.650Z,5.30
2018-05-03T07:45:21.577Z,5.50
2018-05-03T07:46:21.503Z,4.80
2018-05-03T07:47:21.430Z,5.60
2018-05-03T07:48:21.357Z,4.90
2018-05-03T07:49:21.286Z,4.80
2018-05-03T07:50:21.208Z,7.50
2018-05-03T07:51:21.134Z,8.70
2018-05-03T07:52:21.062Z,6.90
2018-05-03T07:53:20.990Z,5.80
2018-05-03T07:54:20.914Z,7.00
2018-05-03T07:55:20.839Z,7.40
2018-05-03T07:56:20.767Z,7.90
2018-05-03T07:57:20.693Z,7.20
2018-05-03T07:58:20.651Z,5.60
2018-05-03T07:59:20.546Z,5.30
2018-05-03T08:00:20.473Z,8.00
2018-05-03T08:01:20.399Z,8.30
2018-05-03T08:02:20.326Z,10.80
2018-05-03T08:03:20.252Z,8.70
2018-05-03T08:04:20.179Z,5.80
2018-05-03T08:05:20.103Z,8.50
2018-05-03T08:06:20.032Z,7.70
2018-05-03T08:07:19.957Z,8.20
2018-05-03T08:08:19.883Z,6.40
2018-05-03T08:09:19.809Z,8.70
2018-05-03T08:10:19.737Z,7.70
2018-05-03T08:11:19.661Z,6.00
2018-05-03T08:12:19.589Z,6.00
2018-05-03T08:13:19.513Z,6.50
2018-05-03T08:14:19.440Z,5.90
2018-05-03T08:15:19.365Z,7.30
2018-05-03T08:16:19.292Z,7.60
2018-05-03T08:17:19.219Z,6.60
2018-05-03T08:18:19.145Z,6.20
2018-05-03T08:19:19.073Z,7.30
2018-05-03T08:20:18.997Z,6.30
2018-05-03T08:21:18.922Z,5.90
2018-05-03T08:22:18.895Z,9.60
2018-05-03T08:23:18.776Z,9.20
2018-05-03T08:24:18.701Z,6.70
2018-05-03T08:25:18.629Z,6.60
2018-05-03T08:26:18.555Z,6.20
2018-05-03T08:27:18.479Z,8.50
2018-05-03T08:28:18.406Z,8.80
2018-05-03T08:29:18.344Z,7.40
2018-05-03T08:30:18.257Z,7.80
2018-05-03T08:31:18.184Z,6.40
2018-05-03T08:32:18.111Z,6.60
2018-05-03T08:33:18.040Z,8.10
2018-05-03T08:34:17.962Z,6.70
2018-05-03T08:35:17.946Z,6.20
2018-05-03T08:36:17.815Z,9.00
2018-05-03T08:37:17.739Z,6.70
2018-05-03T08:38:17.672Z,7.60
2018-05-03T08:39:17.593Z,7.70
2018-05-03T08:40:17.518Z,6.90
2018-05-03T08:41:17.445Z,6.90
2018-05-03T08:42:17.371Z,7.10
2018-05-03T08:43:17.296Z,6.80
2018-05-03T08:44:17.224Z,9.20
2018-05-03T08:45:17.206Z,6.90
2018-05-03T08:46:17.075Z,7.70
2018-05-03T08:47:17.003Z,8.00
2018-05-03T08:48:16.928Z,7.00
2018-05-03T08:49:16.855Z,8.20
2018-05-03T08:50:16.781Z,6.20
2018-05-03T08:51:16.708Z,6.80
2018-05-03T08:52:16.634Z,8.50
2018-05-03T08:53:16.561Z,6.60
2018-05-03T08:54:16.487Z,6.10
2018-05-03T08:55:16.413Z,6.90
2018-05-03T08:56:16.340Z,6.70
2018-05-03T08:57:16.266Z,7.10
2018-05-03T08:58:16.194Z,8.30
2018-05-03T08:59:16.120Z,9.30
2018-05-03T09:00:16.047Z,7.70
2018-05-03T09:01:16.059Z,8.90
2018-05-03T09:02:15.901Z,7.00
2018-05-03T09:03:15.828Z,7.60
2018-05-03T09:04:15.755Z,7.20
2018-05-03T09:05:15.681Z,6.70
2018-05-03T09:06:15.608Z,7.70
2018-05-03T09:07:15.536Z,7.30
2018-05-03T09:08:15.465Z,8.30
2018-05-03T09:09:15.394Z,7.00
2018-05-03T09:10:15.317Z,6.90
2018-05-03T09:11:15.243Z,8.50
2018-05-03T09:12:15.171Z,10.30
2018-05-03T09:13:15.097Z,32.30
2018-05-03T09:14:15.026Z,15.20
2018-05-03T09:15:14.953Z,14.00
2018-05-03T09:16:14.881Z,9.20
2018-05-03T09:17:14.807Z,8.50
2018-05-03T09:18:14.735Z,7.60
2018-05-03T09:19:14.663Z,7.80
2018-05-03T09:20:14.590Z,7.00
2018-05-03T09:21:14.517Z,6.20
2018-05-03T09:22:14.446Z,7.20
2018-05-03T09:23:14.373Z,7.10
2018-05-03T09:24:14.301Z,7.50
2018-05-03T09:25:14.228Z,6.50
2018-05-03T09:26:14.159Z,6.80
2018-05-03T09:27:14.085Z,6.80
2018-05-03T09:28:14.013Z,7.10
2018-05-03T09:29:13.940Z,7.90
2018-05-03T09:30:13.869Z,8.20
2018-05-03T09:31:13.801Z,7.00
2018-05-03T09:32:13.729Z,10.50
2018-05-03T09:33:13.652Z,8.90
2018-05-03T09:34:13.881Z,8.40
2018-05-03T09:35:13.509Z,8.00
2018-05-03T09:36:13.438Z,7.80
2018-05-03T09:37:13.365Z,7.60
2018-05-03T09:38:13.294Z,9.60
2018-05-03T09:39:13.285Z,6.70
2018-05-03T09:40:13.154Z,9.40
2018-05-03T09:41:13.081Z,8.00
2018-05-03T09:42:13.007Z,8.30
2018-05-03T09:43:12.936Z,8.20
2018-05-03T09:44:12.866Z,8.10
2018-05-03T09:45:12.792Z,8.80
2018-05-03T09:46:12.721Z,8.30
2018-05-03T09:47:12.652Z,9.20
2018-05-03T09:48:12.578Z,8.20
2018-05-03T09:49:12.509Z,7.20
2018-05-03T09:50:12.437Z,7.50
2018-05-03T09:51:12.367Z,8.10
2018-05-03T09:52:12.294Z,9.20
2018-05-03T09:53:12.222Z,7.90
2018-05-03T09:54:12.152Z,8.70
2018-05-03T09:55:12.081Z,7.70
2018-05-03T09:56:12.014Z,8.50
2018-05-03T09:57:11.940Z,8.10
2018-05-03T09:58:11.868Z,6.10
2018-05-03T09:59:11.800Z,7.70
2018-05-03T10:00:11.725Z,7.50
2018-05-03T10:01:11.652Z,8.30
2018-05-03T10:02:11.590Z,6.60
2018-05-03T10:03:11.512Z,9.30
2018-05-03T10:04:11.450Z,7.40
2018-05-03T10:05:11.367Z,6.70
2018-05-03T10:06:11.298Z,7.10
2018-05-03T10:07:11.228Z,10.00
2018-05-03T10:08:11.157Z,9.00
2018-05-03T10:09:11.085Z,8.00
2018-05-03T10:10:11.014Z,7.80
2018-05-03T10:11:10.942Z,8.50
2018-05-03T10:12:10.872Z,5.50
2018-05-03T10:13:10.830Z,7.40
2018-05-03T10:14:10.730Z,7.30
2018-05-03T10:15:10.658Z,7.60
2018-05-03T10:16:10.587Z,7.90
2018-05-03T10:17:10.516Z,6.80
2018-05-03T10:18:10.446Z,7.70
2018-05-03T10:19:10.375Z,8.00
2018-05-03T10:20:10.302Z,9.00
2018-05-03T10:21:10.231Z,10.90
2018-05-03T10:22:10.161Z,8.80
2018-05-03T10:23:10.089Z,6.60
2018-05-03T10:24:10.020Z,7.20
2018-05-03T10:25:09.946Z,8.30
2018-05-03T10:26:09.876Z,7.60
2018-05-03T10:27:09.804Z,7.60
2018-05-03T10:28:09.733Z,9.40
2018-05-03T10:29:09.660Z,7.40
2018-05-03T10:30:09.605Z,7.90
2018-05-03T10:31:09.520Z,8.70
2018-05-03T10:32:09.447Z,8.90
2018-05-03T10:33:09.375Z,8.20
2018-05-03T10:34:09.305Z,7.60
2018-05-03T10:35:09.231Z,8.10
2018-05-03T10:36:09.266Z,7.60
2018-05-03T10:37:09.090Z,8.00
2018-05-03T10:38:09.018Z,7.30
2018-05-03T10:39:08.945Z,6.90
2018-05-03T10:40:08.875Z,9.70
2018-05-03T10:41:08.803Z,6.90
2018-05-03T10:42:08.824Z,7.20
2018-05-03T10:43:08.661Z,8.80
2018-05-03T10:44:08.595Z,7.70
2018-05-03T10:45:08.517Z,8.00
2018-05-03T10:46:08.450Z,7.30
2018-05-03T10:47:08.376Z,8.10
2018-05-03T10:48:08.305Z,8.60
2018-05-03T10:49:08.299Z,8.60
2018-05-03T10:50:08.161Z,8.10
2018-05-03T10:51:08.092Z,8.00
2018-05-03T10:52:08.021Z,8.00
2018-05-03T10:53:07.950Z,7.10
2018-05-03T10:54:07.878Z,7.30
2018-05-03T10:55:07.810Z,8.40
2018-05-03T10:56:07.739Z,8.60
2018-05-03T10:57:07.667Z,8.70
2018-05-03T10:58:07.597Z,7.90
2018-05-03T10:59:07.525Z,7.10
2018-05-03T11:00:07.457Z,7.40
2018-05-03T11:01:07.385Z,12.50
2018-05-03T11:02:07.315Z,7.90
2018-05-03T11:03:07.245Z,9.10
2018-05-03T11:04:07.175Z,8.00
2018-05-03T11:05:07.104Z,6.80
2018-05-03T11:06:07.033Z,8.50
2018-05-03T11:07:06.963Z,6.80
2018-05-03T11:08:06.892Z,8.20
2018-05-03T11:09:06.822Z,9.00
2018-05-03T11:10:06.752Z,9.10
2018-05-03T11:11:06.707Z,6.50
2018-05-03T11:12:06.612Z,7.00
2018-05-03T11:13:06.541Z,7.20
2018-05-03T11:14:06.471Z,7.20
2018-05-03T11:15:06.400Z,6.70
2018-05-03T11:16:06.333Z,6.60
2018-05-03T11:17:06.262Z,6.60
2018-05-03T11:18:06.192Z,7.40
2018-05-03T11:19:06.122Z,7.20
2018-05-03T11:20:06.053Z,6.20
2018-05-03T11:21:05.984Z,8.50
2018-05-03T11:22:05.928Z,8.10
2018-05-03T11:23:05.842Z,6.70
2018-05-03T11:24:05.773Z,6.60
2018-05-03T11:25:05.709Z,7.80
2018-05-03T11:26:05.633Z,7.10
2018-05-03T11:27:05.564Z,7.20
2018-05-03T11:28:05.496Z,7.70
2018-05-03T11:29:05.424Z,7.60
2018-05-03T11:30:05.356Z,8.40
2018-05-03T11:31:05.287Z,7.80
2018-05-03T11:32:05.232Z,7.00
2018-05-03T11:33:05.149Z,6.60
2018-05-03T11:34:05.080Z,6.90
2018-05-03T11:35:05.013Z,5.90
2018-05-03T11:36:04.944Z,7.30
2018-05-03T11:37:04.876Z,6.50
2018-05-03T11:38:04.813Z,7.50
2018-05-03T11:39:04.742Z,6.40
2018-05-03T11:40:04.675Z,6.50
2018-05-03T11:41:04.608Z,6.50
2018-05-03T11:42:04.542Z,7.40
2018-05-03T11:43:04.475Z,6.40
2018-05-03T11:44:04.410Z,6.60
2018-05-03T11:45:04.344Z,7.00
2018-05-03T11:46:04.282Z,7.20
2018-05-03T11:47:04.214Z,6.00
2018-05-03T11:48:04.156Z,7.50
2018-05-03T11:49:04.084Z,7.90
2018-05-03T11:50:04.022Z,6.60
2018-05-03T11:51:03.957Z,6.80
2018-05-03T11:52:03.893Z,6.50
2018-05-03T11:53:03.831Z,8.60
2018-05-03T11:54:03.768Z,6.10
2018-05-03T11:55:03.705Z,6.70
2018-05-03T11:56:03.643Z,8.90
2018-05-03T11:57:03.580Z,7.70
2018-05-03T11:58:03.519Z,6.30
2018-05-03T11:59:03.523Z,7.70
2018-05-03T12:00:03.394Z,7.20
2018-05-03T12:01:03.333Z,6.00
2018-05-03T12:02:03.271Z,8.10
2018-05-03T12:03:03.209Z,7.10
2018-05-03T12:04:03.148Z,6.30
2018-05-03T12:05:03.085Z,7.30
2018-05-03T12:06:03.043Z,8.60
2018-05-03T12:07:02.962Z,6.70
2018-05-03T12:08:02.902Z,6.80
2018-05-03T12:09:02.838Z,5.20
2018-05-03T12:10:02.784Z,6.70
2018-05-03T12:11:02.718Z,6.20
2018-05-03T12:12:02.660Z,6.00
2018-05-03T12:13:02.599Z,5.60
2018-05-03T12:14:02.533Z,7.50
2018-05-03T12:15:02.475Z,6.00
2018-05-03T12:16:02.413Z,7.30
2018-05-03T12:17:02.350Z,7.30
2018-05-03T12:18:02.290Z,6.70
2018-05-03T12:19:02.231Z,5.80
2018-05-03T12:20:02.172Z,6.10
2018-05-03T12:21:02.112Z,7.00
2018-05-03T12:22:02.054Z,6.10
2018-05-03T12:23:01.992Z,5.90
2018-05-03T12:24:01.932Z,6.80
2018-05-03T12:25:01.869Z,5.40
2018-05-03T12:26:01.810Z,5.40
2018-05-03T12:27:01.790Z,5.40
2018-05-03T12:28:01.692Z,6.10
2018-05-03T12:29:01.632Z,5.70
2018-05-03T12:30:01.573Z,5.90
2018-05-03T12:31:01.515Z,6.30
2018-05-03T12:32:01.460Z,6.70
2018-05-03T12:33:01.397Z,6.90
2018-05-03T12:34:01.337Z,6.60
2018-05-03T12:35:01.278Z,6.00
2018-05-03T12:36:01.219Z,5.20
2018-05-03T12:37:01.158Z,5.30
2018-05-03T12:38:01.100Z,5.60
2018-05-03T12:39:01.042Z,5.70
2018-05-03T12:40:00.982Z,5.60
2018-05-03T12:41:00.924Z,5.30
2018-05-03T12:42:00.865Z,5.50
2018-05-03T12:43:01.107Z,5.10
2018-05-03T12:44:00.748Z,5.20
2018-05-03T12:45:00.692Z,5.90
2018-05-03T12:46:00.631Z,6.50
2018-05-03T12:47:00.574Z,6.40
2018-05-03T12:48:00.516Z,5.50
2018-05-03T12:49:00.456Z,5.90
2018-05-03T12:50:00.399Z,5.70
2018-05-03T12:51:00.342Z,5.70
2018-05-03T12:52:00.288Z,6.10
2018-05-03T12:53:00.224Z,5.20
2018-05-03T12:54:00.167Z,6.40
2018-05-03T12:55:00.108Z,5.70
2018-05-03T12:56:00.052Z,6.10
2018-05-03T12:56:59.991Z,5.30
2018-05-03T12:57:59.932Z,5.80
2018-05-03T12:58:59.874Z,5.20
2018-05-03T12:59:59.815Z,5.10
2018-05-03T13:00:59.755Z,6.00
2018-05-03T13:01:59.696Z,4.70
2018-05-03T13:02:59.639Z,5.90
2018-05-03T13:03:59.576Z,4.90
2018-05-03T13:04:59.523Z,5.00
2018-05-03T13:05:59.457Z,4.90
2018-05-03T13:06:59.398Z,5.40
2018-05-03T13:07:59.337Z,4.90
2018-05-03T13:08:59.276Z,6.10
2018-05-03T13:09:59.217Z,4.80
2018-05-03T13:10:59.157Z,4.70
2018-05-03T13:11:59.097Z,4.70
2018-05-03T13:12:59.040Z,5.60
2018-05-03T13:13:58.977Z,6.00
2018-05-03T13:14:58.916Z,4.90
2018-05-03T13:15:58.858Z,5.70
2018-05-03T13:16:58.797Z,6.00
2018-05-03T13:17:58.737Z,5.30